createdAt,value
2022-12-23T00:00:28.314Z,90.59
2022-12-23T00:02:55.050Z,90.67
2022-12-23T00:05:21.885Z,90.84
2022-12-23T00:07:48.438Z,89.97
2022-12-23T00:10:15.041Z,90.11
2022-12-23T00:12:59.866Z,89.94
2022-12-23T00:15:26.422Z,90.01
2022-12-23T00:17:52.964Z,90.04
2022-12-23T00:20:19.600Z,88.38
2022-12-23T00:23:04.694Z,88.20
2022-12-23T00:25:41.486Z,87.94
2022-12-23T00:28:11.416Z,87.75
2022-12-23T00:30:45.064Z,87.26
2022-12-23T00:33:11.740Z,88.39
2022-12-23T00:35:38.275Z,88.17
2022-12-23T00:38:04.835Z,88.76
2022-12-23T00:40:51.010Z,89.18
2022-12-23T00:43:17.554Z,89.94
2022-12-23T00:45:44.168Z,89.49
2022-12-23T00:48:29.242Z,89.40
2022-12-23T00:50:55.909Z,89.49
2022-12-23T00:53:23.248Z,90.08
2022-12-23T00:55:50.924Z,89.61
2022-12-23T00:58:19.035Z,88.93
2022-12-23T01:01:05.033Z,89.71
2022-12-23T01:03:50.745Z,89.59
2022-12-23T01:06:17.864Z,89.19
2022-12-23T01:08:44.696Z,89.51
2022-12-23T01:11:12.077Z,89.63
2022-12-23T01:13:39.130Z,89.67
2022-12-23T01:16:15.012Z,89.68
2022-12-23T01:18:44.042Z,89.13
2022-12-23T01:21:11.323Z,88.97
2022-12-23T01:23:38.056Z,89.14
2022-12-23T01:26:06.521Z,89.03
2022-12-23T01:28:33.790Z,88.36
2022-12-23T01:31:01.867Z,88.49
2022-12-23T01:33:28.594Z,88.60
2022-12-23T01:36:06.675Z,88.54
2022-12-23T01:38:34.123Z,88.37
2022-12-23T01:41:00.766Z,87.59
2022-12-23T01:43:49.114Z,88.16
2022-12-23T01:46:16.239Z,87.58
2022-12-23T01:48:46.376Z,88.10
2022-12-23T01:51:22.108Z,87.97
2022-12-23T01:53:53.513Z,87.97
2022-12-23T01:56:26.832Z,87.85
2022-12-23T01:58:59.928Z,88.04
2022-12-23T02:01:45.569Z,87.18
2022-12-23T02:04:17.470Z,87.84
2022-12-23T02:07:04.583Z,87.85
2022-12-23T02:09:36.782Z,87.56
2022-12-23T02:12:34.325Z,87.30
2022-12-23T02:15:44.703Z,86.83
2022-12-23T02:18:21.141Z,87.04
2022-12-23T02:21:03.744Z,86.88
2022-12-23T02:23:36.267Z,86.65
2022-12-23T02:26:40.388Z,87.54
2022-12-23T02:29:06.868Z,86.76
2022-12-23T02:31:45.305Z,86.57
2022-12-23T02:34:30.214Z,86.40
2022-12-23T02:37:29.163Z,86.78
2022-12-23T02:40:36.895Z,86.09
2022-12-23T02:43:25.254Z,85.93
2022-12-23T02:45:56.692Z,85.86
2022-12-23T02:48:29.415Z,85.43
2022-12-23T02:50:58.876Z,84.94
2022-12-23T02:53:28.014Z,84.38
2022-12-23T02:55:56.342Z,84.21
2022-12-23T02:58:29.153Z,83.76
2022-12-23T03:00:58.230Z,82.58
2022-12-23T03:03:26.293Z,82.56
2022-12-23T03:05:54.330Z,81.95
2022-12-23T03:08:26.620Z,82.32
2022-12-23T03:11:08.857Z,81.40
2022-12-23T03:13:57.024Z,81.88
2022-12-23T03:16:27.895Z,81.32
2022-12-23T03:19:23.501Z,81.19
2022-12-23T03:22:20.802Z,80.95
2022-12-23T03:24:57.439Z,80.95
2022-12-23T03:27:23.896Z,81.07
2022-12-23T03:30:12.131Z,79.96
2022-12-23T03:32:59.733Z,80.99
2022-12-23T03:35:36.187Z,79.61
2022-12-23T03:38:04.012Z,79.94
2022-12-23T03:40:37.318Z,79.56
2022-12-23T03:43:20.033Z,80.02
2022-12-23T03:45:54.874Z,78.98
2022-12-23T03:48:29.463Z,79.64
2022-12-23T03:51:00.474Z,79.62
2022-12-23T03:53:54.451Z,79.36
2022-12-23T03:56:41.077Z,78.70
2022-12-23T03:59:11.844Z,79.09
2022-12-23T04:01:57.328Z,79.27
2022-12-23T04:04:56.636Z,78.75
2022-12-23T04:07:42.553Z,78.46
2022-12-23T04:10:10.537Z,78.86
2022-12-23T04:12:38.687Z,78.96
2022-12-23T04:15:12.273Z,79.14
2022-12-23T04:17:39.615Z,78.72
2022-12-23T04:20:07.309Z,78.80
2022-12-23T04:22:33.882Z,78.45
2022-12-23T04:25:00.420Z,78.35
2022-12-23T04:27:26.957Z,78.39
2022-12-23T04:29:53.462Z,78.63
2022-12-23T04:32:20.005Z,78.34
2022-12-23T04:34:46.555Z,77.73
2022-12-23T04:37:13.101Z,78.36
2022-12-23T04:39:39.628Z,78.13
2022-12-23T04:42:06.246Z,78.69
2022-12-23T04:44:32.836Z,78.92
2022-12-23T04:46:59.974Z,77.84
2022-12-23T04:49:26.648Z,78.64
2022-12-23T04:51:53.150Z,78.44
2022-12-23T04:54:19.790Z,78.70
2022-12-23T04:56:46.355Z,78.48
2022-12-23T04:59:12.999Z,79.07
2022-12-23T05:01:39.712Z,78.92
2022-12-23T05:04:06.373Z,79.06
2022-12-23T05:06:32.934Z,79.54
2022-12-23T05:08:59.495Z,78.88
2022-12-23T05:11:26.166Z,79.29
2022-12-23T05:13:52.740Z,79.10
2022-12-23T05:16:19.358Z,79.36
2022-12-23T05:18:46.056Z,79.34
2022-12-23T05:21:12.687Z,78.63
2022-12-23T05:23:39.267Z,78.91
2022-12-23T05:26:05.908Z,78.19
2022-12-23T05:28:33.315Z,78.53
2022-12-23T05:31:01.936Z,78.42
2022-12-23T05:33:28.825Z,78.49
2022-12-23T05:35:56.251Z,79.05
2022-12-23T05:38:23.209Z,78.30
2022-12-23T05:40:49.773Z,77.95
2022-12-23T05:43:16.857Z,78.62
2022-12-23T05:45:43.746Z,77.80
2022-12-23T05:48:10.661Z,78.12
2022-12-23T05:50:38.247Z,77.55
2022-12-23T05:53:05.319Z,78.00
2022-12-23T05:55:32.375Z,77.93
2022-12-23T05:57:59.316Z,77.93
2022-12-23T06:00:25.968Z,77.86
2022-12-23T06:02:54.076Z,77.86
2022-12-23T06:05:21.745Z,78.12
2022-12-23T06:07:48.295Z,78.17
2022-12-23T06:10:14.851Z,77.97
2022-12-23T06:12:41.464Z,77.76
2022-12-23T06:15:08.678Z,77.74
2022-12-23T06:17:35.435Z,78.20
2022-12-23T06:20:02.073Z,77.44
2022-12-23T06:22:28.679Z,77.92
2022-12-23T06:24:55.210Z,78.11
2022-12-23T06:27:21.743Z,77.61
2022-12-23T06:29:48.471Z,78.04
2022-12-23T06:32:15.157Z,77.87
2022-12-23T06:34:41.799Z,77.63
2022-12-23T06:37:08.395Z,77.88
2022-12-23T06:39:34.969Z,77.66
2022-12-23T06:42:01.510Z,77.91
2022-12-23T06:44:28.001Z,77.94
2022-12-23T06:46:54.538Z,77.95
2022-12-23T06:49:21.092Z,78.17
2022-12-23T06:51:47.607Z,79.31
2022-12-23T06:54:14.155Z,79.57
2022-12-23T06:56:40.836Z,80.20
2022-12-23T06:59:07.433Z,81.08
2022-12-23T07:01:34.145Z,81.34
2022-12-23T07:04:01.888Z,81.84
2022-12-23T07:06:28.608Z,81.65
2022-12-23T07:08:55.190Z,82.87
2022-12-23T07:11:21.778Z,83.53
2022-12-23T07:13:48.790Z,82.23
2022-12-23T07:16:15.590Z,82.33
2022-12-23T07:18:42.251Z,82.89
2022-12-23T07:21:18.795Z,83.14
2022-12-23T07:23:48.128Z,83.16
2022-12-23T07:26:14.742Z,83.76
2022-12-23T07:28:43.651Z,83.73
2022-12-23T07:31:10.265Z,83.63
2022-12-23T07:33:36.825Z,84.07
2022-12-23T07:36:03.494Z,83.55
2022-12-23T07:38:30.058Z,83.25
2022-12-23T07:40:56.584Z,83.78
2022-12-23T07:43:23.125Z,83.67
2022-12-23T07:45:55.549Z,83.41
2022-12-23T07:48:26.146Z,82.46
2022-12-23T07:50:52.742Z,83.00
2022-12-23T07:53:19.285Z,82.72
2022-12-23T07:55:47.255Z,82.67
2022-12-23T07:58:15.654Z,82.43
2022-12-23T08:00:42.186Z,83.32
2022-12-23T08:03:11.649Z,83.73
2022-12-23T08:05:38.321Z,84.33
2022-12-23T08:08:04.999Z,83.40
2022-12-23T08:10:31.562Z,83.86
2022-12-23T08:13:00.754Z,83.23
2022-12-23T08:15:27.360Z,83.26
2022-12-23T08:17:56.154Z,82.48
2022-12-23T08:20:22.718Z,80.95
2022-12-23T08:22:49.295Z,81.50
2022-12-23T08:25:15.895Z,81.46
2022-12-23T08:27:42.466Z,80.13
2022-12-23T08:30:09.747Z,80.15
2022-12-23T08:32:36.331Z,80.64
2022-12-23T08:35:02.891Z,79.53
2022-12-23T08:37:29.672Z,80.02
2022-12-23T08:39:56.197Z,80.06
2022-12-23T08:42:22.725Z,79.42
2022-12-23T08:44:49.273Z,80.08
2022-12-23T08:47:15.804Z,79.95
2022-12-23T08:49:42.404Z,79.76
2022-12-23T08:52:08.949Z,79.36
2022-12-23T08:54:35.504Z,79.26
2022-12-23T08:57:02.044Z,79.04
2022-12-23T08:59:28.698Z,79.53
2022-12-23T09:01:55.422Z,78.50
2022-12-23T09:04:22.139Z,79.00
2022-12-23T09:06:48.682Z,78.68
2022-12-23T09:09:16.171Z,78.39
2022-12-23T09:11:42.759Z,78.35
2022-12-23T09:14:11.024Z,78.48
2022-12-23T09:16:37.877Z,77.78
2022-12-23T09:19:04.863Z,78.08
2022-12-23T09:21:31.673Z,78.42
2022-12-23T09:23:58.320Z,78.09
2022-12-23T09:26:28.490Z,77.18
2022-12-23T09:28:55.668Z,77.67
2022-12-23T09:31:23.589Z,77.03
2022-12-23T09:33:52.508Z,77.13
2022-12-23T09:36:20.003Z,77.24
2022-12-23T09:38:46.843Z,77.84
2022-12-23T09:41:19.253Z,77.59
2022-12-23T09:44:00.611Z,77.35
2022-12-23T09:46:32.126Z,76.82
2022-12-23T09:49:05.266Z,77.83
2022-12-23T09:51:33.481Z,77.55
2022-12-23T09:54:16.568Z,77.18
2022-12-23T09:56:57.894Z,77.09
2022-12-23T09:59:55.236Z,77.53
2022-12-23T10:03:02.813Z,76.92
2022-12-23T10:05:56.238Z,76.47
2022-12-23T10:08:32.546Z,76.41
2022-12-23T10:11:14.015Z,75.53
2022-12-23T10:14:03.029Z,75.26
2022-12-23T10:16:35.140Z,76.03
2022-12-23T10:19:07.132Z,76.20
2022-12-23T10:21:46.873Z,75.98
2022-12-23T10:24:34.920Z,75.71
2022-12-23T10:27:04.881Z,76.19
2022-12-23T10:29:33.681Z,76.02
2022-12-23T10:32:21.696Z,75.29
2022-12-23T10:35:06.499Z,74.83
2022-12-23T10:37:52.712Z,74.72
2022-12-23T10:40:22.267Z,74.85
2022-12-23T10:43:10.964Z,75.38
2022-12-23T10:45:40.459Z,75.05
2022-12-23T10:48:44.265Z,75.51
2022-12-23T10:51:10.743Z,74.92
2022-12-23T10:53:39.576Z,74.68
2022-12-23T10:56:07.434Z,74.68
2022-12-23T10:58:38.384Z,74.71
2022-12-23T11:01:18.696Z,74.69
2022-12-23T11:04:08.617Z,75.05
2022-12-23T11:06:40.992Z,74.38
2022-12-23T11:09:16.576Z,74.68
2022-12-23T11:11:56.854Z,74.45
2022-12-23T11:14:53.766Z,75.13
2022-12-23T11:17:30.002Z,74.72
2022-12-23T11:20:07.401Z,74.20
2022-12-23T11:22:34.040Z,74.27
2022-12-23T11:25:27.670Z,74.09
2022-12-23T11:27:58.641Z,73.75
2022-12-23T11:30:25.449Z,72.97
2022-12-23T11:32:52.533Z,72.99
2022-12-23T11:35:35.533Z,72.56
2022-12-23T11:38:04.111Z,73.17
2022-12-23T11:40:37.405Z,72.91
2022-12-23T11:43:14.452Z,72.07
2022-12-23T11:45:41.161Z,72.50
2022-12-23T11:48:27.275Z,72.09
2022-12-23T11:51:02.220Z,72.97
2022-12-23T11:53:31.536Z,72.52
2022-12-23T11:56:00.741Z,72.33
2022-12-23T11:58:29.817Z,72.30
2022-12-23T12:00:59.598Z,72.32
2022-12-23T12:03:34.377Z,72.96
2022-12-23T12:06:04.508Z,72.57
2022-12-23T12:08:36.933Z,71.69
2022-12-23T12:11:19.725Z,71.44
2022-12-23T12:13:49.982Z,71.88
2022-12-23T12:16:33.513Z,71.68
2022-12-23T12:19:10.705Z,72.12
2022-12-23T12:21:38.972Z,71.92
2022-12-23T12:24:19.861Z,71.93
2022-12-23T12:26:51.586Z,72.17
2022-12-23T12:29:51.717Z,71.33
2022-12-23T12:32:38.530Z,71.67
2022-12-23T12:35:16.725Z,71.57
2022-12-23T12:37:49.923Z,71.90
2022-12-23T12:40:36.204Z,74.15
2022-12-23T12:43:30.201Z,74.36
2022-12-23T12:46:18.453Z,74.05
2022-12-23T12:48:51.768Z,74.16
2022-12-23T12:51:26.092Z,74.97
2022-12-23T12:54:05.173Z,74.88
2022-12-23T12:56:43.727Z,73.72
2022-12-23T12:59:17.127Z,72.94
2022-12-23T13:02:05.405Z,73.01
2022-12-23T13:04:53.788Z,72.63
2022-12-23T13:07:50.825Z,72.76
2022-12-23T13:10:43.812Z,73.21
2022-12-23T13:13:40.802Z,73.12
2022-12-23T13:16:17.281Z,73.40
2022-12-23T13:18:58.741Z,73.41
2022-12-23T13:21:38.193Z,74.06
2022-12-23T13:24:12.804Z,74.55
2022-12-23T13:26:59.360Z,73.84
2022-12-23T13:29:44.207Z,74.28
2022-12-23T13:32:44.867Z,73.77
2022-12-23T13:35:32.167Z,74.01
2022-12-23T13:38:01.397Z,74.35
2022-12-23T13:40:33.914Z,74.03
2022-12-23T13:43:16.050Z,74.57
2022-12-23T13:45:43.838Z,74.20
2022-12-23T13:48:25.196Z,73.87
2022-12-23T13:51:04.232Z,74.31
2022-12-23T13:53:49.596Z,74.16
2022-12-23T13:56:44.191Z,74.50
2022-12-23T13:59:12.686Z,73.93
2022-12-23T14:01:42.334Z,74.44
2022-12-23T14:04:35.346Z,73.86
2022-12-23T14:07:23.093Z,73.87
2022-12-23T14:10:19.982Z,74.35
2022-12-23T14:12:48.420Z,74.33
2022-12-23T14:15:45.638Z,74.37
2022-12-23T14:18:36.707Z,74.27
2022-12-23T14:21:32.826Z,74.52
2022-12-23T14:24:05.060Z,74.10
2022-12-23T14:26:46.171Z,74.49
2022-12-23T14:29:33.916Z,73.68
2022-12-23T14:32:00.468Z,74.05
2022-12-23T14:34:30.934Z,73.74
2022-12-23T14:37:23.687Z,73.86
2022-12-23T14:39:51.621Z,74.02
2022-12-23T14:42:50.379Z,73.81
2022-12-23T14:45:41.838Z,74.71
2022-12-23T14:48:33.307Z,74.59
2022-12-23T14:51:08.768Z,74.02
2022-12-23T14:53:56.957Z,74.00
2022-12-23T14:56:40.814Z,74.19
2022-12-23T14:59:24.040Z,74.43
2022-12-23T15:02:04.110Z,73.78
2022-12-23T15:04:50.840Z,74.18
2022-12-23T15:07:26.092Z,74.33
2022-12-23T15:10:01.125Z,74.38
2022-12-23T15:12:40.623Z,74.62
2022-12-23T15:15:13.953Z,74.79
2022-12-23T15:17:40.826Z,75.36
2022-12-23T15:20:11.095Z,74.63
2022-12-23T15:22:38.523Z,74.53
2022-12-23T15:25:18.376Z,74.21
2022-12-23T15:27:45.271Z,74.37
2022-12-23T15:30:13.618Z,74.61
2022-12-23T15:32:45.716Z,74.60
2022-12-23T15:35:22.331Z,74.09
2022-12-23T15:37:50.608Z,73.91
2022-12-23T15:40:23.198Z,74.73
2022-12-23T15:42:52.973Z,75.25
2022-12-23T15:45:28.676Z,74.23
2022-12-23T15:47:55.465Z,74.51
2022-12-23T15:50:22.536Z,74.21
2022-12-23T15:52:50.665Z,74.68
2022-12-23T15:55:29.961Z,74.05
2022-12-23T15:57:57.617Z,74.39
2022-12-23T16:00:28.793Z,74.06
2022-12-23T16:03:00.940Z,74.77
2022-12-23T16:05:37.725Z,74.10
2022-12-23T16:08:28.594Z,73.96
2022-12-23T16:11:11.673Z,74.59
2022-12-23T16:13:41.637Z,74.32
2022-12-23T16:16:31.340Z,74.67
2022-12-23T16:18:57.990Z,74.36
2022-12-23T16:21:29.546Z,74.11
2022-12-23T16:23:57.248Z,74.05
2022-12-23T16:26:23.917Z,74.05
2022-12-23T16:28:54.342Z,73.59
2022-12-23T16:31:21.679Z,73.97
2022-12-23T16:33:49.952Z,73.44
2022-12-23T16:36:25.241Z,73.23
2022-12-23T16:39:00.664Z,73.67
2022-12-23T16:41:27.209Z,73.62
2022-12-23T16:43:53.835Z,73.12
2022-12-23T16:46:23.192Z,73.07
2022-12-23T16:48:55.846Z,73.49
2022-12-23T16:51:23.576Z,74.57
2022-12-23T16:53:52.475Z,73.42
2022-12-23T16:56:21.396Z,73.70
2022-12-23T16:58:48.344Z,73.94
2022-12-23T17:01:23.722Z,73.86
2022-12-23T17:03:50.901Z,74.05
2022-12-23T17:06:18.917Z,74.90
2022-12-23T17:08:45.553Z,74.46
2022-12-23T17:11:36.753Z,74.58
2022-12-23T17:14:07.866Z,75.58
2022-12-23T17:16:37.071Z,75.87
2022-12-23T17:19:05.517Z,76.71
2022-12-23T17:21:34.983Z,76.77
2022-12-23T17:24:09.155Z,77.41
2022-12-23T17:26:35.873Z,77.93
2022-12-23T17:29:04.006Z,76.81
2022-12-23T17:31:32.121Z,78.18
2022-12-23T17:33:58.928Z,79.45
2022-12-23T17:36:25.492Z,81.02
2022-12-23T17:38:52.057Z,82.21
2022-12-23T17:41:28.120Z,83.11
2022-12-23T17:43:55.119Z,84.46
2022-12-23T17:46:22.128Z,84.22
2022-12-23T17:48:48.833Z,84.26
2022-12-23T17:51:20.876Z,84.19
2022-12-23T17:53:53.133Z,83.62
2022-12-23T17:56:24.657Z,84.74
2022-12-23T17:58:51.292Z,85.62
2022-12-23T18:01:32.273Z,86.24
2022-12-23T18:03:59.782Z,86.39
2022-12-23T18:06:28.025Z,86.56
2022-12-23T18:08:56.938Z,86.84
2022-12-23T18:11:34.465Z,86.82
2022-12-23T18:14:01.812Z,87.46
2022-12-23T18:16:28.593Z,86.86
2022-12-23T18:18:55.403Z,85.87
2022-12-23T18:21:28.084Z,86.02
2022-12-23T18:23:57.785Z,86.35
2022-12-23T18:26:25.014Z,87.54
2022-12-23T18:28:54.169Z,86.98
2022-12-23T18:31:22.857Z,85.66
2022-12-23T18:33:50.133Z,87.25
2022-12-23T18:36:22.763Z,88.24
2022-12-23T18:38:49.539Z,88.86
2022-12-23T18:41:16.151Z,88.98
2022-12-23T18:43:42.878Z,89.50
2022-12-23T18:46:09.543Z,90.11
2022-12-23T18:48:36.228Z,90.23
2022-12-23T18:51:02.829Z,90.59
2022-12-23T18:53:29.501Z,90.95
2022-12-23T18:55:56.176Z,90.13
2022-12-23T18:58:23.384Z,90.57
2022-12-23T19:00:52.659Z,90.83
2022-12-23T19:03:25.066Z,91.43
2022-12-23T19:05:52.852Z,90.30
2022-12-23T19:08:26.387Z,91.46
2022-12-23T19:10:54.456Z,91.51
2022-12-23T19:13:21.640Z,92.35
2022-12-23T19:15:48.394Z,92.08
2022-12-23T19:18:18.292Z,91.31
2022-12-23T19:20:46.288Z,92.05
2022-12-23T19:23:13.269Z,92.27
2022-12-23T19:25:49.199Z,92.69
2022-12-23T19:28:21.744Z,93.03
2022-12-23T19:30:48.750Z,93.25
2022-12-23T19:33:15.725Z,92.51
2022-12-23T19:35:42.893Z,92.55
2022-12-23T19:38:10.068Z,92.51
2022-12-23T19:40:36.640Z,92.64
2022-12-23T19:43:03.550Z,93.22
2022-12-23T19:45:30.146Z,92.98
2022-12-23T19:47:56.705Z,93.00
2022-12-23T19:50:23.314Z,92.66
2022-12-23T19:52:52.660Z,92.88
2022-12-23T19:55:19.233Z,93.21
2022-12-23T19:57:45.773Z,93.11
2022-12-23T20:00:12.827Z,92.68
2022-12-23T20:02:39.477Z,93.08
2022-12-23T20:05:06.361Z,92.44
2022-12-23T20:07:35.422Z,91.81
2022-12-23T20:10:02.235Z,91.75
2022-12-23T20:12:28.747Z,91.47
2022-12-23T20:14:55.474Z,91.49
2022-12-23T20:17:22.052Z,92.07
2022-12-23T20:19:48.600Z,90.59
2022-12-23T20:22:15.181Z,91.04
2022-12-23T20:24:41.757Z,90.54
2022-12-23T20:27:11.704Z,90.84
2022-12-23T20:29:39.259Z,90.69
2022-12-23T20:32:06.011Z,90.61
2022-12-23T20:34:38.714Z,90.35
2022-12-23T20:37:06.530Z,90.41
2022-12-23T20:39:33.088Z,90.22
2022-12-23T20:41:59.664Z,90.29
2022-12-23T20:44:35.659Z,90.13
2022-12-23T20:47:03.594Z,90.02
2022-12-23T20:49:30.783Z,89.59
2022-12-23T20:51:57.484Z,89.96
2022-12-23T20:54:31.697Z,89.94
2022-12-23T20:56:59.675Z,89.87
2022-12-23T20:59:26.327Z,90.01
2022-12-23T21:01:53.017Z,89.93
2022-12-23T21:04:20.532Z,90.02
2022-12-23T21:06:47.144Z,90.72
2022-12-23T21:09:15.194Z,90.61
2022-12-23T21:11:45.635Z,90.38
2022-12-23T21:14:13.614Z,90.76
2022-12-23T21:16:41.195Z,91.59
2022-12-23T21:19:12.922Z,91.58
2022-12-23T21:21:39.442Z,90.78
2022-12-23T21:24:06.497Z,91.36
2022-12-23T21:26:34.637Z,91.58
2022-12-23T21:29:04.202Z,91.53
2022-12-23T21:31:32.217Z,91.57
2022-12-23T21:33:59.078Z,91.61
2022-12-23T21:36:28.185Z,92.45
2022-12-23T21:38:54.830Z,92.57
2022-12-23T21:41:25.237Z,92.33
2022-12-23T21:43:52.143Z,91.93
2022-12-23T21:46:20.826Z,92.26
2022-12-23T21:48:49.068Z,91.65
2022-12-23T21:51:23.581Z,91.49
2022-12-23T21:53:52.364Z,92.22
2022-12-23T21:56:24.211Z,91.27
2022-12-23T21:58:54.680Z,92.17
2022-12-23T22:01:21.463Z,92.88
2022-12-23T22:03:49.679Z,92.95
2022-12-23T22:06:19.089Z,92.59
2022-12-23T22:08:46.039Z,92.36
2022-12-23T22:11:27.208Z,92.14
2022-12-23T22:13:55.966Z,92.10
2022-12-23T22:16:25.011Z,92.25
2022-12-23T22:18:52.439Z,92.58
2022-12-23T22:21:21.851Z,92.73
2022-12-23T22:23:48.840Z,92.76
2022-12-23T22:26:24.208Z,93.13
2022-12-23T22:28:52.879Z,93.01
2022-12-23T22:31:45.522Z,91.98
2022-12-23T22:34:18.584Z,91.99
2022-12-23T22:36:45.245Z,91.93
2022-12-23T22:39:20.693Z,90.53
2022-12-23T22:41:49.292Z,89.26
2022-12-23T22:44:16.381Z,85.34
2022-12-23T22:46:43.655Z,82.68
2022-12-23T22:49:12.496Z,83.32
2022-12-23T22:51:41.130Z,84.70
2022-12-23T22:54:08.411Z,84.71
2022-12-23T22:56:35.025Z,86.47
2022-12-23T22:59:01.573Z,86.91
2022-12-23T23:01:31.355Z,86.34
2022-12-23T23:04:00.410Z,86.97
2022-12-23T23:06:37.673Z,87.59
2022-12-23T23:09:10.061Z,87.51
2022-12-23T23:11:36.650Z,85.46
2022-12-23T23:14:03.732Z,83.68
2022-12-23T23:16:30.540Z,83.46
2022-12-23T23:18:58.828Z,83.08
2022-12-23T23:21:26.097Z,82.00
2022-12-23T23:23:52.989Z,83.21
2022-12-23T23:26:20.133Z,83.37
2022-12-23T23:28:47.367Z,83.80
2022-12-23T23:34:00.694Z,84.55
2022-12-23T23:36:27.385Z,84.60
2022-12-23T23:38:53.988Z,85.01
2022-12-23T23:41:23.239Z,84.06
2022-12-23T23:43:51.282Z,84.36
2022-12-23T23:46:18.011Z,84.42
2022-12-23T23:48:44.679Z,83.85
2022-12-23T23:51:12.557Z,83.50
2022-12-23T23:53:39.287Z,83.33
2022-12-23T23:56:07.667Z,82.52
2022-12-23T23:58:35.383Z,82.23
